NKS9918 KFLL-KGYR
Flight info
| Callsign | NKS9918 |
|---|---|
| Flight time | N/A |
| Altitude | 36000 |
| Route | BNICE2 DOLIE CIGAR Y290 LEV IAH JCT ELP J50 ALIBY J2 TUS SUNSS8 |
| Aircraft | A321/M-SDE3FGHIRWY/LB1 |
Departure
| Time | N/A |
|---|---|
| Airport | Fort Lauderdale Hollywood International Airport (KFLL) |
Arrival
| Time | 2026-05-06 03:27 |
|---|---|
| Airport | Phoenix Goodyear Airport (KGYR) |
| Time | Latitude | Longitude | Altitude | Speed | Heading |
|---|---|---|---|---|---|
| 2026-05-06 03:12 | 32.97028 | -111.16991 | 23974 ft | 423 kts | 280° |
| 2026-05-06 03:12 | 32.97943 | -111.20316 | 23971 ft | 423 kts | 281° |
| 2026-05-06 03:12 | 32.98851 | -111.23625 | 23968 ft | 423 kts | 280° |
| 2026-05-06 03:12 | 32.99763 | -111.26949 | 23957 ft | 422 kts | 280° |
| 2026-05-06 03:13 | 33.00674 | -111.30270 | 23959 ft | 422 kts | 280° |
| 2026-05-06 03:13 | 33.01580 | -111.33575 | 23956 ft | 424 kts | 280° |
| 2026-05-06 03:13 | 33.02483 | -111.36887 | 23957 ft | 423 kts | 281° |
| 2026-05-06 03:13 | 33.03395 | -111.40237 | 23940 ft | 421 kts | 281° |
| 2026-05-06 03:14 | 33.04295 | -111.43539 | 23745 ft | 421 kts | 281° |
| 2026-05-06 03:14 | 33.05193 | -111.46828 | 23561 ft | 421 kts | 281° |
| 2026-05-06 03:14 | 33.06307 | -111.50082 | 23366 ft | 430 kts | 289° |
| 2026-05-06 03:14 | 33.07880 | -111.53179 | 23170 ft | 440 kts | 297° |
| 2026-05-06 03:15 | 33.09781 | -111.56042 | 22975 ft | 443 kts | 301° |
| 2026-05-06 03:15 | 33.11670 | -111.58941 | 22786 ft | 440 kts | 300° |
| 2026-05-06 03:15 | 33.13507 | -111.61841 | 22506 ft | 440 kts | 300° |
| 2026-05-06 03:15 | 33.15331 | -111.64761 | 21804 ft | 435 kts | 300° |
| 2026-05-06 03:16 | 33.17060 | -111.67618 | 21073 ft | 423 kts | 300° |
| 2026-05-06 03:16 | 33.18734 | -111.70466 | 20305 ft | 414 kts | 300° |
| 2026-05-06 03:16 | 33.20336 | -111.73243 | 19564 ft | 406 kts | 300° |
| 2026-05-06 03:16 | 33.21874 | -111.76024 | 18811 ft | 398 kts | 299° |
| 2026-05-06 03:17 | 33.23318 | -111.78797 | 18057 ft | 395 kts | 298° |
| 2026-05-06 03:17 | 33.24765 | -111.81618 | 17287 ft | 403 kts | 298° |
| 2026-05-06 03:17 | 33.26223 | -111.84463 | 16522 ft | 401 kts | 299° |
| 2026-05-06 03:17 | 33.27675 | -111.87289 | 15755 ft | 399 kts | 299° |
| 2026-05-06 03:18 | 33.29117 | -111.90089 | 14994 ft | 395 kts | 299° |
| 2026-05-06 03:18 | 33.30546 | -111.92868 | 14236 ft | 393 kts | 300° |
| 2026-05-06 03:18 | 33.31959 | -111.95617 | 13485 ft | 390 kts | 300° |
| 2026-05-06 03:18 | 33.33375 | -111.98370 | 12719 ft | 387 kts | 300° |
| 2026-05-06 03:19 | 33.34771 | -112.01086 | 11967 ft | 385 kts | 300° |
| 2026-05-06 03:19 | 33.36163 | -112.03794 | 11219 ft | 381 kts | 300° |
| 2026-05-06 03:19 | 33.37519 | -112.06440 | 10487 ft | 376 kts | 300° |
| 2026-05-06 03:19 | 33.38879 | -112.09092 | 9748 ft | 373 kts | 300° |
| 2026-05-06 03:20 | 33.41501 | -112.14211 | 8209 ft | 344 kts | 300° |
| 2026-05-06 03:20 | 33.42712 | -112.16579 | 7358 ft | 325 kts | 300° |
| 2026-05-06 03:20 | 33.43485 | -112.18090 | 6791 ft | 314 kts | 300° |
| 2026-05-06 03:21 | 33.44938 | -112.20941 | 5672 ft | 298 kts | 300° |
| 2026-05-06 03:21 | 33.46004 | -112.23022 | 4854 ft | 287 kts | 301° |
| 2026-05-06 03:21 | 33.47314 | -112.24734 | 4092 ft | 280 kts | 324° |
| 2026-05-06 03:21 | 33.49086 | -112.25510 | 3618 ft | 268 kts | 352° |
| 2026-05-06 03:22 | 33.50897 | -112.25263 | 3186 ft | 259 kts | 12° |
| 2026-05-06 03:22 | 33.52613 | -112.24925 | 2734 ft | 245 kts | 352° |
| 2026-05-06 03:22 | 33.54083 | -112.25664 | 2326 ft | 219 kts | 311° |
| 2026-05-06 03:22 | 33.54635 | -112.27152 | 2151 ft | 183 kts | 265° |
| 2026-05-06 03:23 | 33.54206 | -112.28449 | 2109 ft | 161 kts | 236° |
| 2026-05-06 03:23 | 33.53487 | -112.29418 | 2031 ft | 157 kts | 223° |
| 2026-05-06 03:23 | 33.52586 | -112.30151 | 1985 ft | 156 kts | 209° |
| 2026-05-06 03:23 | 33.51553 | -112.30587 | 1981 ft | 158 kts | 197° |
| 2026-05-06 03:24 | 33.50474 | -112.30896 | 1982 ft | 158 kts | 197° |
| 2026-05-06 03:24 | 33.49428 | -112.31290 | 1979 ft | 157 kts | 202° |
| 2026-05-06 03:24 | 33.48501 | -112.31849 | 1953 ft | 136 kts | 214° |
| 2026-05-06 03:24 | 33.47774 | -112.32456 | 1937 ft | 122 kts | 218° |
| 2026-05-06 03:25 | 33.47109 | -112.33059 | 1957 ft | 120 kts | 219° |
| 2026-05-06 03:25 | 33.46447 | -112.33689 | 1883 ft | 120 kts | 220° |
| 2026-05-06 03:25 | 33.45787 | -112.34299 | 1665 ft | 120 kts | 219° |
| 2026-05-06 03:25 | 33.45139 | -112.34908 | 1445 ft | 118 kts | 219° |
| 2026-05-06 03:26 | 33.44486 | -112.35520 | 1283 ft | 118 kts | 219° |
| 2026-05-06 03:26 | 33.43837 | -112.36120 | 1148 ft | 117 kts | 219° |
| 2026-05-06 03:26 | 33.43202 | -112.36716 | 1009 ft | 116 kts | 219° |
| 2026-05-06 03:26 | 33.42606 | -112.37279 | 974 ft | 90 kts | 218° |
| 2026-05-06 03:27 | 33.42248 | -112.37614 | 971 ft | 39 kts | 218° |
| 2026-05-06 03:27 | 33.42088 | -112.37759 | 968 ft | 20 kts | 215° |
| 2026-05-06 03:27 | 33.42002 | -112.37814 | 966 ft | 7 kts | 214° |
| 2026-05-06 03:27 | 33.42011 | -112.37826 | 966 ft | 5 kts | 33° |
| 2026-05-06 03:28 | 33.42094 | -112.37753 | 968 ft | 23 kts | 37° |
| 2026-05-06 03:28 | 33.42218 | -112.37672 | 970 ft | 14 kts | 343° |
| 2026-05-06 03:28 | 33.42282 | -112.37750 | 971 ft | 12 kts | 307° |
| 2026-05-06 03:28 | 33.42340 | -112.37814 | 972 ft | 10 kts | 345° |
| 2026-05-06 03:29 | 33.42404 | -112.37803 | 973 ft | 9 kts | 17° |
| 2026-05-06 03:29 | 33.42494 | -112.37750 | 975 ft | 17 kts | 36° |
| 2026-05-06 03:29 | 33.42583 | -112.37669 | 976 ft | 15 kts | 39° |
| 2026-05-06 03:29 | 33.42661 | -112.37595 | 978 ft | 13 kts | 38° |
| 2026-05-06 03:30 | 33.42733 | -112.37528 | 979 ft | 13 kts | 37° |
| 2026-05-06 03:30 | 33.42816 | -112.37455 | 980 ft | 14 kts | 37° |
| 2026-05-06 03:30 | 33.42898 | -112.37384 | 979 ft | 14 kts | 36° |
| 2026-05-06 03:30 | 33.42967 | -112.37310 | 980 ft | 12 kts | 35° |
| 2026-05-06 03:31 | 33.43041 | -112.37318 | 982 ft | 10 kts | 317° |
| 2026-05-06 03:31 | 33.43048 | -112.37379 | 982 ft | 6 kts | 236° |
| 2026-05-06 03:31 | 33.43006 | -112.37412 | 981 ft | 8 kts | 184° |
| 2026-05-06 03:31 | 33.42947 | -112.37405 | 980 ft | 7 kts | 174° |
| 2026-05-06 03:32 | 33.42939 | -112.37404 | 980 ft | 0 kts | 173° |